createdAt,value
2023-03-27T00:00:01.130Z,76.38
2023-03-27T00:05:00.676Z,76.64
2023-03-27T00:10:01.005Z,76.91
2023-03-27T00:15:00.878Z,77.28
2023-03-27T00:20:00.710Z,77.94
2023-03-27T00:25:00.771Z,79.08
2023-03-27T00:30:01.290Z,79.06
2023-03-27T00:35:01.483Z,79.46
2023-03-27T00:40:01.464Z,79.54
2023-03-27T00:45:01.309Z,79.45
2023-03-27T00:50:07.860Z,79.48
2023-03-27T00:55:06.059Z,79.31
2023-03-27T01:00:02.958Z,79.19
2023-03-27T01:05:00.788Z,79.10
2023-03-27T01:10:00.860Z,79.01
2023-03-27T01:15:13.926Z,79.39
2023-03-27T01:20:18.119Z,79.49
2023-03-27T01:25:11.678Z,79.44
2023-03-27T01:30:01.663Z,79.36
2023-03-27T01:35:18.964Z,79.61
2023-03-27T01:40:05.697Z,79.76
2023-03-27T01:45:15.969Z,79.76
2023-03-27T01:50:18.062Z,79.57
2023-03-27T01:55:05.730Z,79.90
2023-03-27T02:00:17.433Z,80.82
2023-03-27T02:05:07.151Z,80.58
2023-03-27T02:10:05.313Z,81.08
2023-03-27T02:15:23.780Z,81.19
2023-03-27T02:20:05.816Z,81.48
2023-03-27T02:25:00.693Z,81.29
2023-03-27T02:30:13.112Z,81.39
2023-03-27T02:35:06.396Z,81.69
2023-03-27T02:40:09.941Z,81.78
2023-03-27T02:45:11.501Z,82.22
2023-03-27T02:50:07.786Z,82.27
2023-03-27T02:55:06.964Z,82.46
2023-03-27T03:00:02.646Z,81.79
2023-03-27T03:05:07.128Z,81.67
2023-03-27T03:10:00.699Z,82.18
2023-03-27T03:15:00.715Z,82.29
2023-03-27T03:20:00.790Z,82.65
2023-03-27T03:25:01.119Z,82.62
2023-03-27T03:30:01.000Z,82.78
2023-03-27T03:35:00.748Z,83.31
2023-03-27T03:40:00.671Z,83.20
2023-03-27T03:45:00.682Z,82.75
2023-03-27T03:50:00.759Z,83.27
2023-03-27T03:55:00.800Z,83.33
2023-03-27T04:00:02.556Z,83.80
2023-03-27T04:05:00.681Z,83.23
2023-03-27T04:10:01.190Z,83.65
2023-03-27T04:15:00.689Z,83.85
2023-03-27T04:20:00.743Z,83.57
2023-03-27T04:25:00.653Z,83.23
2023-03-27T04:30:00.875Z,83.19
2023-03-27T04:35:00.820Z,83.43
2023-03-27T04:40:00.790Z,83.75
2023-03-27T04:45:00.695Z,83.75
2023-03-27T04:50:00.804Z,84.56
2023-03-27T04:55:01.005Z,84.88
2023-03-27T05:00:03.013Z,83.97
2023-03-27T05:05:00.703Z,84.55
2023-03-27T05:10:00.704Z,84.12
2023-03-27T05:15:00.797Z,84.44
2023-03-27T05:20:00.722Z,84.06
2023-03-27T05:25:00.670Z,84.48
2023-03-27T05:30:01.454Z,84.68
2023-03-27T05:35:00.672Z,84.73
2023-03-27T05:40:00.808Z,84.30
2023-03-27T05:45:00.706Z,84.67
2023-03-27T05:50:01.037Z,84.33
2023-03-27T05:55:00.695Z,84.12
2023-03-27T06:00:01.409Z,84.09
2023-03-27T06:05:00.714Z,83.58
2023-03-27T06:10:00.687Z,83.48
2023-03-27T06:15:00.671Z,83.32
2023-03-27T06:20:00.788Z,83.13
2023-03-27T06:25:00.693Z,83.43
2023-03-27T06:30:00.705Z,84.21
2023-03-27T06:35:00.853Z,83.92
2023-03-27T06:40:00.700Z,84.13
2023-03-27T06:45:00.659Z,84.11
2023-03-27T06:50:00.675Z,83.48
2023-03-27T06:55:00.691Z,83.13
2023-03-27T07:00:04.201Z,82.70
2023-03-27T07:05:04.862Z,81.12
2023-03-27T07:10:00.905Z,80.32
2023-03-27T07:15:00.816Z,80.16
2023-03-27T07:20:00.692Z,80.10
2023-03-27T07:25:01.090Z,77.05
2023-03-27T07:30:00.925Z,70.81
2023-03-27T07:35:00.874Z,75.12
2023-03-27T07:40:00.917Z,67.28
2023-03-27T07:45:03.453Z,63.71
2023-03-27T07:50:00.780Z,61.41
2023-03-27T07:55:00.688Z,54.33
2023-03-27T08:00:01.156Z,53.96
2023-03-27T08:05:00.747Z,53.74
2023-03-27T08:10:01.107Z,50.90
2023-03-27T08:15:01.148Z,53.18
2023-03-27T08:20:00.785Z,49.87
2023-03-27T08:25:00.712Z,49.48
2023-03-27T08:30:01.356Z,51.90
2023-03-27T08:35:00.675Z,54.07
2023-03-27T08:40:00.777Z,54.87
2023-03-27T08:45:07.795Z,53.07
2023-03-27T08:50:04.761Z,46.92
2023-03-27T08:55:20.594Z,45.25
2023-03-27T09:00:01.978Z,44.83
2023-03-27T09:05:07.948Z,48.66
2023-03-27T09:10:18.072Z,52.07
2023-03-27T09:15:07.864Z,51.54
2023-03-27T09:20:15.103Z,47.28
2023-03-27T09:25:04.213Z,47.90
2023-03-27T09:30:10.628Z,49.25
2023-03-27T09:35:00.774Z,45.75
2023-03-27T09:40:02.684Z,44.81
2023-03-27T09:45:04.634Z,44.38
2023-03-27T09:50:20.580Z,43.31
2023-03-27T09:55:01.249Z,43.13
2023-03-27T10:00:06.662Z,43.03
2023-03-27T10:05:03.497Z,49.34
2023-03-27T10:10:06.574Z,55.77
2023-03-27T10:15:03.205Z,58.20
2023-03-27T10:20:03.974Z,59.84
2023-03-27T10:25:02.950Z,63.73
2023-03-27T10:30:01.168Z,67.14
2023-03-27T10:35:00.758Z,70.67
2023-03-27T10:40:01.864Z,68.99
2023-03-27T10:45:01.896Z,58.93
2023-03-27T10:50:08.974Z,54.56
2023-03-27T10:55:16.126Z,57.96
2023-03-27T11:00:20.768Z,50.92
2023-03-27T11:05:06.138Z,51.29
2023-03-27T11:10:05.754Z,52.61
2023-03-27T11:15:14.452Z,50.13
2023-03-27T11:20:06.166Z,48.27
2023-03-27T11:25:06.389Z,50.16
2023-03-27T11:30:08.301Z,52.94
2023-03-27T11:35:06.770Z,55.78
2023-03-27T11:40:11.400Z,55.09
2023-03-27T11:45:01.541Z,54.13
2023-03-27T11:50:13.888Z,49.04
2023-03-27T11:55:20.589Z,47.84
2023-03-27T12:00:09.213Z,47.02
2023-03-27T12:05:20.616Z,47.28
2023-03-27T12:10:09.194Z,48.20
2023-03-27T12:15:20.613Z,49.64
2023-03-27T12:20:10.633Z,44.37
2023-03-27T12:25:10.664Z,45.20
2023-03-27T12:30:20.603Z,41.88
2023-03-27T12:35:09.603Z,41.23
2023-03-27T12:40:00.893Z,41.58
2023-03-27T12:45:13.877Z,44.38
2023-03-27T12:50:16.832Z,46.14
2023-03-27T12:55:05.604Z,46.28
2023-03-27T13:00:01.442Z,52.63
2023-03-27T13:05:26.927Z,56.95
2023-03-27T13:10:10.637Z,60.07
2023-03-27T13:15:10.678Z,60.65
2023-03-27T13:20:19.761Z,60.72
2023-03-27T13:25:08.337Z,58.57
2023-03-27T13:30:00.700Z,57.84
2023-03-27T13:35:04.048Z,56.62
2023-03-27T13:40:01.473Z,54.34
2023-03-27T13:45:11.631Z,53.42
2023-03-27T13:50:18.036Z,53.02
2023-03-27T13:55:20.602Z,51.91
2023-03-27T14:00:08.320Z,57.90
2023-03-27T14:05:11.755Z,62.06
2023-03-27T14:10:12.192Z,62.00
2023-03-27T14:15:10.817Z,61.70
2023-03-27T14:20:11.969Z,58.45
2023-03-27T14:25:04.330Z,57.70
2023-03-27T14:30:12.396Z,57.70
2023-03-27T14:35:01.036Z,55.90
2023-03-27T14:40:07.888Z,54.27
2023-03-27T14:45:16.051Z,55.72
2023-03-27T14:50:01.024Z,56.88
2023-03-27T14:55:02.367Z,60.67
2023-03-27T15:00:03.420Z,62.45
2023-03-27T15:05:07.410Z,65.91
2023-03-27T15:10:16.629Z,68.46
2023-03-27T15:15:00.899Z,69.01
2023-03-27T15:20:06.270Z,69.00
2023-03-27T15:25:04.918Z,70.35
2023-03-27T15:30:06.242Z,68.88
2023-03-27T15:35:02.702Z,65.19
2023-03-27T15:40:10.649Z,63.28
2023-03-27T15:45:02.394Z,61.12
2023-03-27T15:50:11.754Z,59.34
2023-03-27T15:55:00.748Z,58.13
2023-03-27T16:00:05.453Z,58.52
2023-03-27T16:05:00.835Z,59.25
2023-03-27T16:10:04.853Z,60.92
2023-03-27T16:15:00.904Z,61.65
2023-03-27T16:20:10.667Z,62.84
2023-03-27T16:25:03.215Z,61.13
2023-03-27T16:30:01.093Z,60.68
2023-03-27T16:35:00.720Z,60.96
2023-03-27T16:40:00.670Z,60.42
2023-03-27T16:45:00.803Z,59.15
2023-03-27T16:50:11.317Z,59.46
2023-03-27T16:55:00.674Z,58.12
2023-03-27T17:00:01.243Z,59.11
2023-03-27T17:05:02.296Z,60.31
2023-03-27T17:10:00.700Z,62.01
2023-03-27T17:15:00.749Z,62.39
2023-03-27T17:20:00.972Z,63.44
2023-03-27T17:25:00.794Z,63.24
2023-03-27T17:30:00.709Z,62.70
2023-03-27T17:35:00.712Z,60.53
2023-03-27T17:40:00.768Z,60.92
2023-03-27T17:45:00.706Z,61.24
2023-03-27T17:50:00.673Z,60.83
2023-03-27T17:55:00.887Z,61.72
2023-03-27T18:00:02.916Z,63.15
2023-03-27T18:05:00.806Z,64.69
2023-03-27T18:10:01.180Z,65.19
2023-03-27T18:15:00.767Z,64.96
2023-03-27T18:20:00.807Z,65.83
2023-03-27T18:25:00.705Z,66.41
2023-03-27T18:30:00.959Z,66.61
2023-03-27T18:35:00.759Z,66.42
2023-03-27T18:40:00.658Z,66.81
2023-03-27T18:45:00.928Z,66.80
2023-03-27T18:50:00.861Z,67.27
2023-03-27T18:55:00.822Z,67.86
2023-03-27T19:00:03.289Z,68.06
2023-03-27T19:05:01.042Z,67.91
2023-03-27T19:10:00.705Z,67.64
2023-03-27T19:15:09.568Z,68.30
2023-03-27T19:20:00.720Z,68.90
2023-03-27T19:25:00.958Z,68.34
2023-03-27T19:30:00.814Z,69.22
2023-03-27T19:35:00.753Z,69.46
2023-03-27T19:40:00.685Z,69.45
2023-03-27T19:45:00.897Z,70.64
2023-03-27T19:50:00.679Z,71.35
2023-03-27T19:55:00.677Z,71.77
2023-03-27T20:00:01.434Z,71.53
2023-03-27T20:05:00.685Z,72.58
2023-03-27T20:10:00.687Z,72.72
2023-03-27T20:15:11.023Z,72.84
2023-03-27T20:20:00.682Z,73.13
2023-03-27T20:25:00.670Z,74.34
2023-03-27T20:30:00.712Z,73.05
2023-03-27T20:35:03.359Z,75.46
2023-03-27T20:40:00.720Z,74.80
2023-03-27T20:45:00.707Z,75.11
2023-03-27T20:50:00.687Z,75.37
2023-03-27T20:55:00.673Z,75.46
2023-03-27T21:00:03.901Z,75.70
2023-03-27T21:05:00.658Z,74.97
2023-03-27T21:10:00.668Z,76.21
2023-03-27T21:15:00.715Z,75.71
2023-03-27T21:20:00.777Z,76.91
2023-03-27T21:25:00.804Z,75.55
2023-03-27T21:30:00.726Z,75.98
2023-03-27T21:35:00.721Z,76.10
2023-03-27T21:40:00.791Z,77.85
2023-03-27T21:45:00.906Z,76.83
2023-03-27T21:50:00.678Z,78.01
2023-03-27T21:55:03.624Z,78.46
2023-03-27T22:00:01.319Z,77.22
2023-03-27T22:05:00.664Z,77.49
2023-03-27T22:10:00.817Z,76.65
2023-03-27T22:15:00.708Z,76.50
2023-03-27T22:20:01.440Z,76.28
2023-03-27T22:25:00.871Z,77.26
2023-03-27T22:30:00.683Z,78.47
2023-03-27T22:35:00.684Z,78.02
2023-03-27T22:40:00.936Z,77.48
2023-03-27T22:45:00.769Z,77.32
2023-03-27T22:50:01.188Z,77.97
2023-03-27T22:55:00.658Z,78.74
2023-03-27T23:00:02.642Z,78.32
2023-03-27T23:05:00.678Z,77.26
2023-03-27T23:10:00.762Z,77.16
2023-03-27T23:15:00.722Z,77.45
2023-03-27T23:20:00.672Z,77.91
2023-03-27T23:25:00.721Z,78.07
2023-03-27T23:30:00.831Z,77.41
2023-03-27T23:35:00.680Z,77.23
2023-03-27T23:40:01.004Z,77.11
2023-03-27T23:45:00.728Z,76.79
2023-03-27T23:50:00.745Z,76.97
2023-03-27T23:55:00.712Z,77.88
